createdAt,value
2018-04-29T00:00:18.784Z,3.70
2018-04-29T00:01:22.281Z,3.97
2018-04-29T00:02:25.848Z,3.70
2018-04-29T00:03:29.295Z,3.42
2018-04-29T00:04:32.784Z,3.92
2018-04-29T00:05:36.211Z,3.92
2018-04-29T00:06:39.871Z,4.03
2018-04-29T00:07:43.389Z,3.35
2018-04-29T00:08:46.706Z,4.10
2018-04-29T00:09:50.193Z,6.10
2018-04-29T00:10:53.592Z,4.25
2018-04-29T00:11:57.136Z,5.25
2018-04-29T00:13:00.489Z,4.32
2018-04-29T00:14:03.969Z,4.50
2018-04-29T00:15:07.622Z,3.80
2018-04-29T00:16:11.304Z,4.37
2018-04-29T00:17:15.085Z,4.20
2018-04-29T00:18:18.761Z,4.53
2018-04-29T00:19:22.249Z,3.80
2018-04-29T00:20:25.653Z,3.80
2018-04-29T00:21:29.225Z,3.90
2018-04-29T00:22:32.647Z,3.92
2018-04-29T00:23:36.135Z,3.72
2018-04-29T00:24:39.569Z,4.40
2018-04-29T00:25:43.110Z,4.25
2018-04-29T00:26:46.836Z,4.05
2018-04-29T00:27:50.428Z,3.95
2018-04-29T00:28:53.850Z,4.05
2018-04-29T00:29:57.346Z,4.60
2018-04-29T00:31:01.083Z,3.90
2018-04-29T00:32:04.557Z,4.50
2018-04-29T00:33:08.516Z,3.67
2018-04-29T00:34:11.955Z,4.55
2018-04-29T00:35:15.587Z,4.32
2018-04-29T00:36:19.392Z,4.30
2018-04-29T00:37:22.828Z,4.00
2018-04-29T00:38:26.456Z,3.60
2018-04-29T00:39:30.103Z,4.50
2018-04-29T00:40:34.106Z,4.62
2018-04-29T00:41:37.602Z,3.80
2018-04-29T00:42:41.483Z,4.07
2018-04-29T00:43:45.248Z,4.10
2018-04-29T00:44:48.668Z,4.32
2018-04-29T00:45:52.093Z,4.40
2018-04-29T00:46:55.683Z,4.22
2018-04-29T00:48:00.315Z,4.60
2018-04-29T00:49:03.830Z,4.20
2018-04-29T00:50:07.254Z,3.78
2018-04-29T00:51:10.696Z,3.87
2018-04-29T00:52:14.031Z,5.30
2018-04-29T00:53:17.529Z,4.53
2018-04-29T00:54:21.615Z,6.40
2018-04-29T00:55:25.101Z,4.68
2018-04-29T00:56:28.505Z,4.70
2018-04-29T00:57:31.966Z,4.32
2018-04-29T00:58:35.350Z,3.83
2018-04-29T00:59:38.732Z,4.30
2018-04-29T01:00:42.062Z,5.25
2018-04-29T01:01:45.431Z,4.70
2018-04-29T01:02:48.807Z,4.60
2018-04-29T01:03:52.461Z,4.47
2018-04-29T01:04:56.156Z,4.40
2018-04-29T01:05:59.612Z,4.60
2018-04-29T01:07:03.033Z,4.30
2018-04-29T01:08:06.641Z,4.47
2018-04-29T01:09:09.980Z,5.15
2018-04-29T01:10:13.534Z,4.47
2018-04-29T01:11:17.230Z,3.90
2018-04-29T01:12:20.816Z,4.97
2018-04-29T01:13:24.412Z,4.65
2018-04-29T01:14:28.282Z,4.72
2018-04-29T01:15:31.735Z,4.60
2018-04-29T01:16:35.618Z,4.65
2018-04-29T01:17:39.070Z,4.87
2018-04-29T01:18:42.772Z,4.32
2018-04-29T01:19:46.269Z,4.40
2018-04-29T01:20:49.680Z,4.57
2018-04-29T01:21:53.268Z,4.43
2018-04-29T01:22:56.680Z,4.82
2018-04-29T01:24:00.288Z,4.87
2018-04-29T01:25:03.698Z,5.32
2018-04-29T01:26:07.232Z,5.28
2018-04-29T01:27:10.798Z,4.95
2018-04-29T01:28:14.348Z,5.35
2018-04-29T01:29:17.957Z,4.85
2018-04-29T01:30:21.502Z,5.80
2018-04-29T01:31:24.924Z,5.28
2018-04-29T01:32:28.388Z,4.80
2018-04-29T01:33:31.747Z,4.50
2018-04-29T01:34:35.331Z,5.20
2018-04-29T01:35:38.680Z,5.40
2018-04-29T01:36:42.090Z,4.70
2018-04-29T01:37:45.504Z,5.00
2018-04-29T01:38:48.860Z,5.12
2018-04-29T01:39:52.317Z,5.95
2018-04-29T01:40:56.248Z,5.47
2018-04-29T01:41:59.753Z,4.80
2018-04-29T01:43:03.438Z,5.07
2018-04-29T01:44:07.491Z,5.55
2018-04-29T01:45:10.957Z,4.57
2018-04-29T01:46:14.435Z,5.20
2018-04-29T01:47:18.139Z,5.18
2018-04-29T01:48:22.679Z,4.85
2018-04-29T01:49:26.146Z,5.20
2018-04-29T01:50:29.797Z,5.12
2018-04-29T01:51:33.183Z,4.87
2018-04-29T01:52:36.523Z,5.30
2018-04-29T01:53:40.110Z,5.15
2018-04-29T01:54:43.612Z,5.22
2018-04-29T01:55:47.776Z,5.40
2018-04-29T01:56:51.143Z,4.55
2018-04-29T01:57:54.576Z,4.70
2018-04-29T01:58:57.951Z,5.15
2018-04-29T02:00:01.528Z,5.57
2018-04-29T02:01:05.227Z,5.20
2018-04-29T02:02:08.776Z,5.40
2018-04-29T02:03:12.241Z,6.87
2018-04-29T02:04:15.813Z,5.50
2018-04-29T02:05:19.472Z,4.85
2018-04-29T02:06:23.037Z,5.57
2018-04-29T02:07:26.435Z,5.03
2018-04-29T02:08:29.776Z,5.43
2018-04-29T02:09:33.194Z,4.78
2018-04-29T02:10:36.643Z,4.35
2018-04-29T02:11:40.116Z,5.50
2018-04-29T02:12:43.867Z,4.35
2018-04-29T02:13:47.514Z,5.68
2018-04-29T02:14:50.914Z,5.10
2018-04-29T02:15:54.395Z,4.85
2018-04-29T02:16:57.869Z,4.75
2018-04-29T02:18:01.206Z,6.50
2018-04-29T02:19:04.861Z,5.70
2018-04-29T02:20:08.518Z,5.55
2018-04-29T02:21:12.259Z,5.15
2018-04-29T02:22:16.000Z,5.35
2018-04-29T02:23:19.456Z,5.53
2018-04-29T02:24:23.027Z,4.90
2018-04-29T02:25:26.638Z,5.32
2018-04-29T02:26:30.013Z,5.07
2018-04-29T02:27:34.050Z,5.10
2018-04-29T02:28:37.594Z,5.07
2018-04-29T02:29:41.077Z,5.70
2018-04-29T02:30:44.387Z,5.60
2018-04-29T02:31:47.756Z,5.95
2018-04-29T02:32:51.307Z,5.00
2018-04-29T02:33:54.776Z,5.05
2018-04-29T02:34:58.139Z,4.60
2018-04-29T02:36:01.586Z,4.78
2018-04-29T02:37:05.146Z,4.97
2018-04-29T02:38:08.757Z,5.28
2018-04-29T02:39:12.470Z,5.05
2018-04-29T02:40:15.988Z,4.70
2018-04-29T02:41:19.570Z,4.95
2018-04-29T02:42:22.913Z,6.95
2018-04-29T02:43:26.845Z,4.40
2018-04-29T02:44:30.283Z,4.82
2018-04-29T02:45:33.883Z,4.45
2018-04-29T02:46:37.315Z,4.75
2018-04-29T02:47:40.946Z,4.65
2018-04-29T02:48:44.623Z,4.37
2018-04-29T02:49:47.992Z,4.30
2018-04-29T02:50:51.334Z,4.05
2018-04-29T02:51:54.645Z,5.00
2018-04-29T02:52:58.189Z,4.70
2018-04-29T02:54:01.906Z,4.30
2018-04-29T02:55:05.343Z,5.35
2018-04-29T02:56:09.048Z,4.40
2018-04-29T02:57:12.537Z,4.85
2018-04-29T02:58:16.133Z,4.70
2018-04-29T02:59:19.522Z,4.45
2018-04-29T03:00:23.132Z,4.45
2018-04-29T03:01:26.893Z,4.30
2018-04-29T03:02:30.383Z,4.75
2018-04-29T03:03:33.943Z,4.28
2018-04-29T03:04:37.641Z,5.45
2018-04-29T03:05:41.125Z,4.47
2018-04-29T03:06:44.523Z,4.60
2018-04-29T03:07:48.311Z,4.93
2018-04-29T03:08:51.887Z,4.30
2018-04-29T03:09:55.334Z,4.22
2018-04-29T03:10:58.819Z,3.90
2018-04-29T03:12:02.342Z,3.83
2018-04-29T03:13:05.837Z,4.60
2018-04-29T03:14:10.067Z,4.28
2018-04-29T03:15:13.687Z,4.53
2018-04-29T03:16:17.147Z,5.40
2018-04-29T03:17:20.466Z,4.62
2018-04-29T03:18:24.143Z,4.85
2018-04-29T03:19:27.627Z,4.85
2018-04-29T03:20:31.180Z,4.22
2018-04-29T03:21:34.789Z,4.62
2018-04-29T03:22:38.642Z,4.03
2018-04-29T03:23:42.085Z,5.68
2018-04-29T03:24:45.459Z,4.70
2018-04-29T03:25:48.956Z,4.47
2018-04-29T03:26:52.482Z,4.90
2018-04-29T03:27:55.927Z,5.70
2018-04-29T03:28:59.409Z,5.20
2018-04-29T03:30:02.837Z,4.30
2018-04-29T03:31:06.283Z,6.35
2018-04-29T03:32:09.787Z,6.43
2018-04-29T03:33:13.139Z,5.85
2018-04-29T03:34:16.465Z,6.35
2018-04-29T03:35:20.188Z,4.45
2018-04-29T03:36:23.789Z,5.57
2018-04-29T03:37:27.331Z,5.43
2018-04-29T03:38:30.811Z,5.47
2018-04-29T03:39:34.292Z,5.75
2018-04-29T03:40:37.708Z,6.20
2018-04-29T03:41:41.175Z,5.50
2018-04-29T03:42:44.715Z,6.45
2018-04-29T03:43:48.302Z,6.50
2018-04-29T03:44:51.719Z,6.28
2018-04-29T03:45:55.243Z,7.00
2018-04-29T03:46:58.641Z,6.37
2018-04-29T03:48:02.453Z,6.55
2018-04-29T03:49:06.728Z,6.75
2018-04-29T03:50:10.628Z,6.75
2018-04-29T03:51:14.104Z,8.38
2018-04-29T03:52:17.770Z,7.30
2018-04-29T03:53:21.390Z,6.93
2018-04-29T03:54:24.961Z,6.70
2018-04-29T03:55:28.357Z,8.00
2018-04-29T03:56:31.906Z,6.47
2018-04-29T03:57:47.381Z,6.40
2018-04-29T03:59:02.684Z,6.35
2018-04-29T04:00:18.291Z,6.60
2018-04-29T04:01:34.027Z,6.35
2018-04-29T04:02:49.113Z,6.72
2018-04-29T04:04:01.119Z,7.07
2018-04-29T04:05:04.509Z,6.28
2018-04-29T04:06:08.171Z,6.95
2018-04-29T04:07:11.581Z,6.30
2018-04-29T04:08:15.017Z,6.12
2018-04-29T04:09:18.447Z,5.95
2018-04-29T04:10:22.130Z,6.82
2018-04-29T04:11:25.820Z,6.40
2018-04-29T04:12:29.945Z,6.50
2018-04-29T04:13:33.736Z,6.07
2018-04-29T04:14:37.673Z,6.40
2018-04-29T04:15:41.141Z,6.50
2018-04-29T04:16:44.866Z,6.68
2018-04-29T04:17:48.188Z,6.30
2018-04-29T04:18:51.918Z,7.57
2018-04-29T04:19:55.353Z,7.55
2018-04-29T04:20:58.839Z,6.30
2018-04-29T04:22:02.253Z,7.32
2018-04-29T04:23:05.719Z,6.97
2018-04-29T04:24:09.229Z,6.32
2018-04-29T04:25:12.893Z,6.65
2018-04-29T04:26:16.312Z,6.05
2018-04-29T04:27:20.357Z,6.03
2018-04-29T04:28:23.704Z,7.05
2018-04-29T04:29:27.175Z,6.53
2018-04-29T04:30:30.555Z,6.32
2018-04-29T04:31:34.152Z,6.32
2018-04-29T04:32:37.599Z,6.82
2018-04-29T04:33:41.039Z,6.15
2018-04-29T04:34:44.397Z,6.70
2018-04-29T04:35:47.846Z,6.70
2018-04-29T04:36:51.198Z,5.80
2018-04-29T04:37:55.004Z,5.85
2018-04-29T04:38:58.345Z,5.97
2018-04-29T04:40:01.742Z,5.93
2018-04-29T04:41:05.173Z,6.10
2018-04-29T04:42:08.619Z,6.53
2018-04-29T04:43:12.034Z,6.45
2018-04-29T04:44:15.553Z,6.30
2018-04-29T04:45:19.279Z,7.18
2018-04-29T04:46:23.470Z,6.40
2018-04-29T04:47:26.895Z,6.32
2018-04-29T04:48:30.383Z,6.30
2018-04-29T04:49:34.718Z,6.28
2018-04-29T04:50:38.334Z,6.62
2018-04-29T04:51:41.790Z,6.93
2018-04-29T04:52:45.289Z,6.50
2018-04-29T04:53:48.746Z,7.50
2018-04-29T04:54:52.301Z,7.05
2018-04-29T04:55:55.716Z,6.70
2018-04-29T04:56:59.391Z,6.47
2018-04-29T04:58:02.875Z,6.12
2018-04-29T04:59:06.501Z,6.28
2018-04-29T05:00:10.056Z,6.20
2018-04-29T05:01:13.543Z,5.85
2018-04-29T05:02:17.242Z,5.95
2018-04-29T05:03:20.887Z,6.45
2018-04-29T05:04:24.455Z,6.50
2018-04-29T05:05:28.012Z,6.12
2018-04-29T05:06:31.737Z,5.43
2018-04-29T05:07:35.208Z,5.82
2018-04-29T05:08:38.891Z,6.22
2018-04-29T05:09:42.343Z,6.12
2018-04-29T05:10:45.864Z,6.35
2018-04-29T05:11:49.474Z,5.55
2018-04-29T05:12:52.812Z,6.07
2018-04-29T05:13:56.144Z,6.32
2018-04-29T05:14:59.607Z,5.95
2018-04-29T05:16:03.067Z,5.75
2018-04-29T05:17:06.594Z,6.05
2018-04-29T05:18:10.027Z,6.60
2018-04-29T05:19:13.464Z,6.62
2018-04-29T05:20:17.184Z,6.68
2018-04-29T05:21:20.944Z,6.10
2018-04-29T05:22:24.351Z,6.30
2018-04-29T05:23:27.977Z,5.90
2018-04-29T05:24:31.440Z,5.55
2018-04-29T05:25:35.048Z,6.45
2018-04-29T05:26:38.763Z,6.55
2018-04-29T05:27:42.451Z,6.18
2018-04-29T05:28:46.045Z,6.80
2018-04-29T05:29:49.663Z,5.85
2018-04-29T05:30:53.177Z,5.87
2018-04-29T05:31:56.648Z,5.60
2018-04-29T05:33:00.089Z,7.22
2018-04-29T05:34:03.641Z,6.47
2018-04-29T05:35:07.160Z,6.25
2018-04-29T05:36:10.765Z,7.12
2018-04-29T05:37:14.167Z,6.68
2018-04-29T05:38:17.503Z,6.25
2018-04-29T05:39:20.887Z,5.80
2018-04-29T05:40:24.259Z,7.18
2018-04-29T05:41:28.112Z,5.97
2018-04-29T05:42:31.585Z,6.30
2018-04-29T05:43:35.037Z,6.87
2018-04-29T05:44:38.374Z,5.80
2018-04-29T05:45:41.850Z,6.20
2018-04-29T05:46:45.297Z,6.80
2018-04-29T05:47:48.708Z,7.47
2018-04-29T05:48:52.096Z,6.80
2018-04-29T05:49:56.778Z,6.35
2018-04-29T05:51:00.929Z,5.37
2018-04-29T05:52:04.435Z,6.03
2018-04-29T05:53:07.918Z,5.75
2018-04-29T05:54:11.457Z,6.07
2018-04-29T05:55:15.276Z,6.15
2018-04-29T05:56:18.728Z,6.10
2018-04-29T05:57:22.178Z,6.28
2018-04-29T05:58:26.436Z,6.60
2018-04-29T05:59:30.124Z,6.00
2018-04-29T06:00:33.645Z,5.80
2018-04-29T06:01:37.382Z,5.87
2018-04-29T06:02:40.969Z,6.35
2018-04-29T06:03:44.582Z,6.80
2018-04-29T06:04:47.971Z,5.70
2018-04-29T06:05:51.485Z,6.15
2018-04-29T06:06:54.906Z,6.28
2018-04-29T06:07:58.341Z,5.85
2018-04-29T06:09:02.063Z,6.32
2018-04-29T06:10:05.829Z,6.10
2018-04-29T06:11:09.374Z,6.10
2018-04-29T06:12:12.830Z,6.60
2018-04-29T06:13:16.291Z,5.57
2018-04-29T06:14:19.670Z,5.70
2018-04-29T06:15:23.056Z,5.97
2018-04-29T06:16:27.652Z,6.55
2018-04-29T06:17:31.075Z,7.25
2018-04-29T06:18:34.573Z,6.18
2018-04-29T06:19:38.070Z,6.12
2018-04-29T06:20:41.553Z,6.15
2018-04-29T06:21:44.947Z,6.97
2018-04-29T06:22:48.299Z,7.25
2018-04-29T06:23:51.811Z,6.43
2018-04-29T06:24:55.188Z,6.22
2018-04-29T06:25:58.768Z,6.65
2018-04-29T06:27:02.413Z,5.72
2018-04-29T06:28:05.876Z,6.03
2018-04-29T06:29:09.449Z,6.32
2018-04-29T06:30:13.138Z,6.43
2018-04-29T06:31:16.533Z,5.60
2018-04-29T06:32:19.911Z,6.50
2018-04-29T06:33:23.285Z,6.68
2018-04-29T06:34:26.784Z,7.37
2018-04-29T06:35:30.570Z,6.82
2018-04-29T06:36:34.088Z,7.10
2018-04-29T06:37:37.637Z,6.53
2018-04-29T06:38:41.468Z,6.25
2018-04-29T06:39:44.872Z,6.25
2018-04-29T06:40:48.525Z,5.87
2018-04-29T06:41:52.399Z,7.30
2018-04-29T06:42:55.825Z,5.22
2018-04-29T06:43:59.412Z,6.25
2018-04-29T06:45:03.231Z,6.82
2018-04-29T06:46:06.825Z,6.28
2018-04-29T06:47:10.315Z,6.18
2018-04-29T06:48:13.767Z,5.70
2018-04-29T06:49:17.214Z,6.43
2018-04-29T06:50:21.568Z,5.62
2018-04-29T06:51:25.104Z,5.57
2018-04-29T06:52:28.650Z,5.25
2018-04-29T06:53:32.196Z,6.35
2018-04-29T06:54:35.535Z,6.68
2018-04-29T06:55:38.971Z,5.35
2018-04-29T06:56:42.422Z,5.78
2018-04-29T06:57:45.916Z,6.60
2018-04-29T06:58:49.320Z,6.72
2018-04-29T06:59:52.703Z,6.70
2018-04-29T07:00:56.321Z,5.37
2018-04-29T07:01:59.707Z,6.57
2018-04-29T07:03:03.114Z,6.70
2018-04-29T07:04:06.738Z,6.80
2018-04-29T07:05:10.270Z,6.60
2018-04-29T07:06:13.616Z,6.90
2018-04-29T07:07:17.034Z,7.18
2018-04-29T07:08:20.761Z,7.32
2018-04-29T07:09:24.121Z,7.30
2018-04-29T07:10:27.692Z,7.70
2018-04-29T07:11:31.110Z,8.30
2018-04-29T07:12:34.789Z,7.22
2018-04-29T07:13:38.263Z,7.53
2018-04-29T07:14:41.831Z,8.30
2018-04-29T07:15:45.536Z,7.65
2018-04-29T07:16:49.043Z,8.00
2018-04-29T07:17:52.399Z,8.35
2018-04-29T07:18:56.108Z,7.97
2018-04-29T07:20:00.016Z,7.80
2018-04-29T07:21:03.462Z,7.03
2018-04-29T07:22:06.956Z,9.15
2018-04-29T07:23:10.560Z,9.52
2018-04-29T07:24:13.987Z,7.25
2018-04-29T07:25:17.341Z,7.28
2018-04-29T07:26:20.740Z,9.10
2018-04-29T07:27:24.226Z,7.37
2018-04-29T07:28:27.792Z,7.62
2018-04-29T07:29:31.477Z,8.30
2018-04-29T07:30:35.023Z,7.95
2018-04-29T07:31:38.521Z,7.85
2018-04-29T07:32:42.021Z,7.93
2018-04-29T07:33:45.573Z,7.20
2018-04-29T07:34:49.152Z,7.87
2018-04-29T07:35:52.554Z,7.82
2018-04-29T07:36:56.510Z,7.82
2018-04-29T07:37:59.909Z,8.00
2018-04-29T07:39:03.387Z,8.15
2018-04-29T07:40:06.921Z,8.25
2018-04-29T07:41:10.394Z,9.00
2018-04-29T07:42:14.156Z,7.37
2018-04-29T07:43:17.480Z,6.47
2018-04-29T07:44:20.959Z,6.95
2018-04-29T07:45:24.457Z,8.23
2018-04-29T07:46:27.898Z,7.12
2018-04-29T07:47:31.811Z,6.90
2018-04-29T07:48:35.303Z,7.47
2018-04-29T07:49:38.857Z,7.68
2018-04-29T07:50:42.557Z,7.65
2018-04-29T07:51:46.104Z,7.32
2018-04-29T07:52:49.469Z,6.95
2018-04-29T07:53:52.945Z,7.18
2018-04-29T07:54:56.423Z,7.40
2018-04-29T07:55:59.892Z,7.37
2018-04-29T07:57:03.501Z,7.62
2018-04-29T07:58:06.984Z,7.07
2018-04-29T07:59:10.428Z,7.25
2018-04-29T08:00:13.781Z,7.45
2018-04-29T08:01:17.154Z,7.18
2018-04-29T08:02:20.631Z,7.20
2018-04-29T08:03:23.998Z,8.13
2018-04-29T08:04:27.502Z,7.40
2018-04-29T08:05:30.991Z,7.22
2018-04-29T08:06:34.451Z,7.18
2018-04-29T08:07:38.840Z,6.65
2018-04-29T08:08:42.189Z,7.43
2018-04-29T08:09:45.621Z,8.27
2018-04-29T08:10:49.157Z,7.40
2018-04-29T08:11:52.637Z,8.80
2018-04-29T08:12:56.349Z,8.60
2018-04-29T08:13:59.720Z,8.38
2018-04-29T08:15:03.670Z,8.80
2018-04-29T08:16:08.004Z,7.90
2018-04-29T08:17:11.913Z,9.00
2018-04-29T08:18:15.676Z,7.68
2018-04-29T08:19:19.300Z,7.82
2018-04-29T08:20:22.651Z,7.78
2018-04-29T08:21:26.064Z,7.87
2018-04-29T08:22:29.433Z,10.73
2018-04-29T08:23:32.820Z,7.53
2018-04-29T08:24:36.283Z,9.02
2018-04-29T08:25:39.790Z,7.97
2018-04-29T08:26:43.220Z,7.45
2018-04-29T08:27:46.646Z,7.90
2018-04-29T08:28:50.126Z,8.25
2018-04-29T08:29:53.553Z,8.55
2018-04-29T08:30:56.940Z,8.40
2018-04-29T08:32:00.531Z,7.82
2018-04-29T08:33:04.108Z,8.25
2018-04-29T08:34:07.729Z,8.68
2018-04-29T08:35:11.350Z,7.70
2018-04-29T08:36:14.918Z,9.30
2018-04-29T08:37:18.628Z,8.77
2018-04-29T08:38:22.402Z,8.82
2018-04-29T08:39:26.230Z,8.30
2018-04-29T08:40:29.686Z,8.85
2018-04-29T08:41:33.116Z,9.48
2018-04-29T08:42:36.565Z,10.50
2018-04-29T08:43:40.197Z,8.55
2018-04-29T08:44:43.613Z,7.90
2018-04-29T08:45:47.055Z,10.10
2018-04-29T08:46:50.510Z,9.48
2018-04-29T08:47:54.051Z,10.20
2018-04-29T08:48:58.075Z,8.70
2018-04-29T08:50:01.469Z,8.77
2018-04-29T08:51:06.430Z,9.30
2018-04-29T08:52:09.940Z,9.77
2018-04-29T08:53:13.508Z,11.50
2018-04-29T08:54:17.106Z,9.93
2018-04-29T08:55:20.570Z,10.45
2018-04-29T08:56:24.071Z,11.38
2018-04-29T08:57:27.557Z,10.50
2018-04-29T08:58:31.101Z,10.25
2018-04-29T08:59:34.638Z,10.70
2018-04-29T09:00:38.048Z,10.73
2018-04-29T09:01:41.558Z,11.70
2018-04-29T09:02:45.155Z,10.43
2018-04-29T09:03:48.678Z,10.82
2018-04-29T09:04:52.164Z,10.93
2018-04-29T09:05:55.623Z,10.73
2018-04-29T09:06:58.984Z,10.90
2018-04-29T09:08:02.415Z,10.57
2018-04-29T09:09:05.935Z,10.95
2018-04-29T09:10:09.479Z,10.35
2018-04-29T09:11:12.865Z,10.77
2018-04-29T09:12:16.540Z,11.32
2018-04-29T09:13:19.901Z,10.63
2018-04-29T09:14:23.329Z,11.35
2018-04-29T09:15:26.732Z,11.18
2018-04-29T09:16:31.878Z,9.70
2018-04-29T09:17:35.372Z,9.90
2018-04-29T09:18:38.937Z,11.35
2018-04-29T09:19:42.569Z,10.90
2018-04-29T09:20:46.411Z,9.88
2018-04-29T09:21:49.805Z,9.90
2018-04-29T09:22:53.156Z,10.70
2018-04-29T09:23:56.679Z,10.05
2018-04-29T09:25:00.349Z,9.35
2018-04-29T09:26:04.198Z,8.98
2018-04-29T09:27:07.603Z,9.02
2018-04-29T09:28:11.187Z,9.13
2018-04-29T09:29:14.922Z,11.40
2018-04-29T09:30:18.351Z,10.45
2018-04-29T09:31:21.965Z,10.35
2018-04-29T09:32:25.430Z,9.35
2018-04-29T09:33:29.124Z,9.68
2018-04-29T09:34:33.712Z,11.00
2018-04-29T09:35:37.215Z,10.10
2018-04-29T09:36:40.662Z,9.93
2018-04-29T09:37:44.618Z,11.32
2018-04-29T09:38:48.286Z,9.30
2018-04-29T09:39:52.087Z,9.60
2018-04-29T09:40:55.728Z,9.70
2018-04-29T09:41:59.738Z,9.38
2018-04-29T09:43:03.384Z,9.18
2018-04-29T09:44:07.215Z,9.20
2018-04-29T09:45:11.341Z,9.25
2018-04-29T09:46:15.240Z,8.95
2018-04-29T09:47:18.756Z,9.32
2018-04-29T09:48:22.206Z,9.10
2018-04-29T09:49:25.933Z,8.55
2018-04-29T09:50:29.370Z,6.85
2018-04-29T09:51:34.827Z,8.00
2018-04-29T09:52:38.266Z,8.88
2018-04-29T09:53:41.812Z,8.35
2018-04-29T09:54:45.150Z,8.10
2018-04-29T09:55:49.045Z,7.97
2018-04-29T09:56:52.500Z,8.30
2018-04-29T09:57:56.068Z,8.35
2018-04-29T09:58:59.480Z,8.30
2018-04-29T10:00:03.007Z,8.50
2018-04-29T10:01:12.642Z,8.38
2018-04-29T10:02:16.950Z,8.82
2018-04-29T10:03:20.490Z,8.30
2018-04-29T10:04:24.136Z,8.27
2018-04-29T10:05:27.529Z,8.80
2018-04-29T10:06:31.281Z,8.75
2018-04-29T10:07:34.599Z,8.20
2018-04-29T10:08:38.144Z,7.03
2018-04-29T10:09:42.058Z,7.65
2018-04-29T10:10:45.462Z,7.45
2018-04-29T10:11:48.870Z,7.28
2018-04-29T10:12:52.361Z,7.75
2018-04-29T10:13:55.809Z,6.87
2018-04-29T10:14:59.320Z,6.78
2018-04-29T10:16:02.682Z,6.62
2018-04-29T10:17:06.340Z,5.75
2018-04-29T10:18:09.947Z,6.15
2018-04-29T10:19:13.766Z,6.60
2018-04-29T10:20:18.181Z,7.25
2018-04-29T10:21:21.785Z,6.75
2018-04-29T10:22:25.173Z,5.85
2018-04-29T10:23:28.548Z,6.97
2018-04-29T10:24:32.314Z,6.97
2018-04-29T10:25:37.084Z,6.82
2018-04-29T10:26:40.728Z,7.90
2018-04-29T10:27:44.319Z,7.72
2018-04-29T10:28:47.879Z,6.82
2018-04-29T10:29:51.329Z,7.53
2018-04-29T10:30:55.015Z,6.80
2018-04-29T10:31:59.566Z,6.93
2018-04-29T10:33:03.102Z,5.78
2018-04-29T10:34:07.042Z,6.50
2018-04-29T10:35:10.628Z,6.85
2018-04-29T10:36:14.472Z,6.50
2018-04-29T10:37:17.944Z,6.85
2018-04-29T10:38:21.327Z,6.28
2018-04-29T10:39:24.638Z,6.82
2018-04-29T10:40:28.298Z,6.78
2018-04-29T10:41:32.066Z,6.68
2018-04-29T10:42:35.461Z,6.32
2018-04-29T10:43:38.828Z,7.28
2018-04-29T10:44:42.632Z,6.62
2018-04-29T10:45:46.143Z,7.53
2018-04-29T10:46:49.663Z,6.85
2018-04-29T10:47:53.149Z,6.93
2018-04-29T10:48:56.620Z,7.43
2018-04-29T10:50:00.077Z,7.25
2018-04-29T10:51:03.728Z,5.60
2018-04-29T10:52:07.614Z,6.47
2018-04-29T10:53:11.053Z,5.80
2018-04-29T10:54:14.836Z,6.10
2018-04-29T10:55:18.276Z,7.25
2018-04-29T10:56:21.915Z,5.70
2018-04-29T10:57:25.788Z,6.00
2018-04-29T10:58:29.615Z,5.50
2018-04-29T10:59:33.053Z,4.97
2018-04-29T11:00:36.697Z,5.75
2018-04-29T11:01:40.151Z,5.15
2018-04-29T11:02:43.709Z,3.90
2018-04-29T11:03:47.211Z,5.20
2018-04-29T11:04:50.553Z,4.80
2018-04-29T11:05:53.880Z,5.15
2018-04-29T11:06:57.565Z,5.62
2018-04-29T11:08:01.103Z,4.97
2018-04-29T11:09:04.734Z,5.60
2018-04-29T11:10:08.150Z,4.22
2018-04-29T11:11:11.567Z,5.10
2018-04-29T11:12:14.981Z,4.78
2018-04-29T11:13:18.380Z,4.80
2018-04-29T11:14:21.723Z,6.18
2018-04-29T11:15:25.109Z,5.22
2018-04-29T11:16:28.521Z,5.95
2018-04-29T11:17:32.198Z,4.97
2018-04-29T11:18:35.782Z,5.87
2018-04-29T11:19:39.316Z,5.60
2018-04-29T11:20:43.012Z,5.53
2018-04-29T11:21:46.482Z,5.00
2018-04-29T11:22:50.096Z,5.00
2018-04-29T11:23:53.644Z,4.85
2018-04-29T11:24:57.226Z,5.40
2018-04-29T11:26:01.331Z,5.40
2018-04-29T11:27:04.814Z,4.75
2018-04-29T11:28:08.254Z,4.60
2018-04-29T11:29:11.657Z,4.80
2018-04-29T11:30:15.182Z,5.82
2018-04-29T11:31:18.545Z,6.07
2018-04-29T11:32:22.013Z,5.40
2018-04-29T11:33:25.557Z,5.00
2018-04-29T11:34:29.051Z,5.05
2018-04-29T11:35:32.475Z,4.32
2018-04-29T11:36:36.314Z,4.65
2018-04-29T11:37:39.919Z,4.10
2018-04-29T11:38:43.300Z,3.97
2018-04-29T11:39:46.996Z,3.80
2018-04-29T11:40:50.367Z,3.30
2018-04-29T11:41:53.862Z,3.87
2018-04-29T11:42:57.573Z,4.30
2018-04-29T11:44:01.213Z,4.50
2018-04-29T11:45:04.942Z,3.92
2018-04-29T11:46:08.458Z,3.85
2018-04-29T11:47:11.921Z,3.83
2018-04-29T11:48:15.463Z,3.90
2018-04-29T11:49:19.148Z,4.07
2018-04-29T11:50:22.644Z,4.20
2018-04-29T11:51:26.385Z,3.80
2018-04-29T11:52:30.985Z,3.65
2018-04-29T11:53:34.843Z,3.97
2018-04-29T11:54:38.581Z,3.80
2018-04-29T11:55:42.643Z,4.18
2018-04-29T11:56:46.437Z,4.40
2018-04-29T11:57:49.962Z,3.97
2018-04-29T11:58:53.548Z,4.30
2018-04-29T11:59:57.075Z,4.15
2018-04-29T12:01:00.532Z,4.40
2018-04-29T12:02:04.363Z,4.37
2018-04-29T12:03:07.928Z,4.05
2018-04-29T12:04:11.276Z,4.30
2018-04-29T12:05:14.662Z,3.80
2018-04-29T12:06:18.249Z,3.90
2018-04-29T12:07:21.614Z,3.85
2018-04-29T12:08:25.043Z,3.40
2018-04-29T12:09:28.564Z,3.85
2018-04-29T12:10:32.056Z,3.50
2018-04-29T12:11:40.547Z,3.55
2018-04-29T12:12:43.906Z,3.70
2018-04-29T12:13:47.224Z,3.50
2018-04-29T12:14:50.623Z,3.90
2018-04-29T12:15:54.183Z,3.62
2018-04-29T12:16:57.603Z,4.25
2018-04-29T12:18:01.062Z,4.47
2018-04-29T12:19:04.457Z,3.90
2018-04-29T12:20:07.780Z,4.22
2018-04-29T12:21:11.150Z,4.05
2018-04-29T12:22:14.559Z,4.15
2018-04-29T12:23:17.904Z,4.30
2018-04-29T12:24:21.391Z,4.20
2018-04-29T12:25:24.740Z,4.40
2018-04-29T12:26:28.108Z,4.05
2018-04-29T12:27:31.524Z,4.45
2018-04-29T12:28:34.894Z,4.40
2018-04-29T12:29:38.255Z,4.45
2018-04-29T12:30:41.655Z,4.37
2018-04-29T12:31:45.090Z,4.25
2018-04-29T12:32:48.452Z,4.40
2018-04-29T12:33:51.821Z,4.47
2018-04-29T12:34:55.178Z,4.53
2018-04-29T12:35:58.561Z,4.05
2018-04-29T12:37:01.922Z,4.30
2018-04-29T12:38:05.261Z,4.15
2018-04-29T12:39:08.588Z,4.00
2018-04-29T12:40:11.945Z,4.60
2018-04-29T12:41:15.726Z,4.03
2018-04-29T12:42:19.151Z,4.00
2018-04-29T12:43:22.638Z,4.53
2018-04-29T12:44:26.103Z,4.10
2018-04-29T12:45:29.652Z,5.30
2018-04-29T12:46:33.100Z,4.60
2018-04-29T12:47:36.405Z,4.20
2018-04-29T12:48:39.831Z,5.00
2018-04-29T12:49:43.226Z,3.80
2018-04-29T12:50:46.618Z,4.80
2018-04-29T12:51:50.432Z,4.65
2018-04-29T12:52:54.712Z,5.05
2018-04-29T12:53:58.420Z,5.05
2018-04-29T12:55:02.053Z,4.50
2018-04-29T12:56:05.565Z,4.47
2018-04-29T12:57:08.956Z,4.05
2018-04-29T12:58:12.299Z,4.87
2018-04-29T12:59:15.690Z,4.97
2018-04-29T13:00:19.181Z,3.87
2018-04-29T13:01:22.514Z,4.25
2018-04-29T13:02:25.840Z,4.80
2018-04-29T13:03:29.479Z,4.85
2018-04-29T13:04:32.830Z,4.25
2018-04-29T13:05:36.344Z,4.82
2018-04-29T13:06:39.716Z,5.03
2018-04-29T13:07:43.011Z,4.20
2018-04-29T13:08:46.676Z,4.80
2018-04-29T13:09:50.440Z,4.07
2018-04-29T13:10:54.484Z,4.37
2018-04-29T13:11:57.825Z,5.07
2018-04-29T13:13:01.184Z,5.07
2018-04-29T13:14:04.576Z,4.35
2018-04-29T13:15:07.912Z,4.90
2018-04-29T13:16:11.260Z,5.47
2018-04-29T13:17:14.611Z,5.15
2018-04-29T13:18:18.278Z,3.95
2018-04-29T13:19:21.692Z,5.18
2018-04-29T13:20:25.007Z,4.30
2018-04-29T13:21:28.466Z,4.00
2018-04-29T13:22:31.939Z,4.15
2018-04-29T13:23:35.340Z,4.65
2018-04-29T13:24:38.791Z,5.10
2018-04-29T13:25:42.227Z,4.78
2018-04-29T13:26:46.015Z,4.30
2018-04-29T13:27:49.603Z,5.15
2018-04-29T13:28:52.973Z,4.93
2018-04-29T13:29:56.377Z,4.28
2018-04-29T13:30:59.840Z,4.30
2018-04-29T13:32:03.210Z,4.32
2018-04-29T13:33:06.571Z,4.05
2018-04-29T13:34:09.953Z,4.15
2018-04-29T13:35:13.304Z,4.75
2018-04-29T13:36:16.619Z,4.95
2018-04-29T13:37:19.956Z,4.72
2018-04-29T13:38:23.303Z,4.68
2018-04-29T13:39:26.758Z,4.10
2018-04-29T13:40:30.147Z,3.35
2018-04-29T13:41:33.676Z,4.47
2018-04-29T13:42:37.103Z,4.32
2018-04-29T13:43:40.514Z,3.78
2018-04-29T13:44:43.964Z,4.12
2018-04-29T13:45:47.407Z,4.28
2018-04-29T13:46:50.773Z,4.10
2018-04-29T13:47:54.124Z,4.07
2018-04-29T13:48:57.559Z,4.57
2018-04-29T13:50:00.908Z,4.37
2018-04-29T13:51:04.328Z,4.62
2018-04-29T13:52:08.000Z,4.43
2018-04-29T13:53:11.415Z,4.15
2018-04-29T13:54:14.856Z,4.55
2018-04-29T13:55:18.434Z,4.10
2018-04-29T13:56:21.781Z,4.07
2018-04-29T13:57:25.213Z,4.10
2018-04-29T13:58:28.540Z,3.67
2018-04-29T13:59:32.021Z,4.75
2018-04-29T14:00:35.475Z,3.72
2018-04-29T14:01:38.855Z,4.93
2018-04-29T14:02:42.241Z,4.25
2018-04-29T14:03:45.755Z,3.87
2018-04-29T14:04:49.358Z,4.25
2018-04-29T14:05:52.847Z,4.35